sensor_id;sensor_type;location;lat;lon;timestamp;pressure;altitude;pressure_sealevel;temperature;humidity
9249;BME280;4660;41.768;26.198;2023-10-09T00:02:12;101151.06;;;21.45;100.00
9249;BME280;4660;41.768;26.198;2023-10-09T00:04:39;101147.78;;;21.28;100.00
9249;BME280;4660;41.768;26.198;2023-10-09T00:07:11;101154.59;;;21.39;100.00
9249;BME280;4660;41.768;26.198;2023-10-09T00:09:37;101164.56;;;21.25;100.00
9249;BME280;4660;41.768;26.198;2023-10-09T00:12:18;101180.75;;;21.20;100.00
9249;BME280;4660;41.768;26.198;2023-10-09T00:14:48;101177.81;;;21.22;100.00
9249;BME280;4660;41.768;26.198;2023-10-09T00:17:18;101186.47;;;20.97;100.00
9249;BME280;4660;41.768;26.198;2023-10-09T00:19:47;101179.41;;;21.09;100.00
9249;BME280;4660;41.768;26.198;2023-10-09T00:22:17;101195.00;;;21.09;100.00
9249;BME280;4660;41.768;26.198;2023-10-09T00:24:45;101186.56;;;21.10;100.00
9249;BME280;4660;41.768;26.198;2023-10-09T00:27:15;101196.88;;;21.08;100.00
9249;BME280;4660;41.768;26.198;2023-10-09T00:29:41;101196.88;;;21.08;100.00
9249;BME280;4660;41.768;26.198;2023-10-09T00:32:14;101210.25;;;20.97;100.00
9249;BME280;4660;41.768;26.198;2023-10-09T00:34:55;101189.50;;;20.59;100.00
9249;BME280;4660;41.768;26.198;2023-10-09T00:37:24;101208.44;;;20.61;100.00
9249;BME280;4660;41.768;26.198;2023-10-09T00:39:52;101215.09;;;20.37;100.00
9249;BME280;4660;41.768;26.198;2023-10-09T00:42:24;101224.56;;;20.20;100.00
9249;BME280;4660;41.768;26.198;2023-10-09T00:45:01;101234.19;;;20.16;100.00
9249;BME280;4660;41.768;26.198;2023-10-09T00:47:34;101233.34;;;20.15;100.00
9249;BME280;4660;41.768;26.198;2023-10-09T00:50:07;101240.34;;;19.88;100.00
9249;BME280;4660;41.768;26.198;2023-10-09T00:52:50;101244.28;;;19.71;100.00
9249;BME280;4660;41.768;26.198;2023-10-09T00:55:26;101260.56;;;19.64;100.00
9249;BME280;4660;41.768;26.198;2023-10-09T00:58:12;101267.97;;;19.56;100.00
9249;BME280;4660;41.768;26.198;2023-10-09T01:00:39;101266.69;;;19.51;100.00
9249;BME280;4660;41.768;26.198;2023-10-09T01:03:17;101276.16;;;19.56;100.00
9249;BME280;4660;41.768;26.198;2023-10-09T01:05:45;101276.81;;;19.43;100.00
9249;BME280;4660;41.768;26.198;2023-10-09T01:08:21;101283.19;;;19.35;100.00
9249;BME280;4660;41.768;26.198;2023-10-09T01:11:16;101288.88;;;19.11;100.00
9249;BME280;4660;41.768;26.198;2023-10-09T01:13:49;101277.91;;;18.96;100.00
9249;BME280;4660;41.768;26.198;2023-10-09T01:16:23;101275.72;;;18.68;100.00
9249;BME280;4660;41.768;26.198;2023-10-09T01:21:20;101296.06;;;18.19;100.00
9249;BME280;4660;41.768;26.198;2023-10-09T01:23:51;101298.69;;;18.04;100.00
9249;BME280;4660;41.768;26.198;2023-10-09T01:26:37;101298.31;;;18.15;100.00
9249;BME280;4660;41.768;26.198;2023-10-09T01:29:14;101301.53;;;18.10;100.00
9249;BME280;4660;41.768;26.198;2023-10-09T01:31:44;101322.81;;;18.15;100.00
9249;BME280;4660;41.768;26.198;2023-10-09T01:34:35;101323.69;;;17.99;100.00
9249;BME280;4660;41.768;26.198;2023-10-09T01:37:15;101350.75;;;18.09;100.00
9249;BME280;4660;41.768;26.198;2023-10-09T01:39:57;101338.50;;;18.05;100.00
9249;BME280;4660;41.768;26.198;2023-10-09T01:42:24;101360.94;;;18.15;100.00
9249;BME280;4660;41.768;26.198;2023-10-09T01:44:56;101356.94;;;18.34;99.14
9249;BME280;4660;41.768;26.198;2023-10-09T01:47:24;101365.25;;;18.40;97.45
9249;BME280;4660;41.768;26.198;2023-10-09T01:49:51;101365.91;;;18.51;95.92
9249;BME280;4660;41.768;26.198;2023-10-09T01:52:19;101368.38;;;18.29;94.39
9249;BME280;4660;41.768;26.198;2023-10-09T01:54:46;101384.38;;;18.32;92.82
9249;BME280;4660;41.768;26.198;2023-10-09T01:57:14;101399.41;;;18.12;93.82
9249;BME280;4660;41.768;26.198;2023-10-09T01:59:44;101403.19;;;17.70;92.62
9249;BME280;4660;41.768;26.198;2023-10-09T02:02:11;101417.09;;;17.26;94.13
9249;BME280;4660;41.768;26.198;2023-10-09T02:04:50;101418.81;;;17.27;94.63
9249;BME280;4660;41.768;26.198;2023-10-09T02:07:16;101409.97;;;17.25;94.44
9249;BME280;4660;41.768;26.198;2023-10-09T02:09:47;101397.53;;;17.06;94.13
9249;BME280;4660;41.768;26.198;2023-10-09T02:12:13;101402.25;;;16.88;95.06
9249;BME280;4660;41.768;26.198;2023-10-09T02:14:38;101398.31;;;16.74;95.10
9249;BME280;4660;41.768;26.198;2023-10-09T02:17:08;101392.97;;;16.65;95.16
9249;BME280;4660;41.768;26.198;2023-10-09T02:19:45;101402.13;;;16.64;95.53
9249;BME280;4660;41.768;26.198;2023-10-09T02:22:15;101396.50;;;16.57;94.64
9249;BME280;4660;41.768;26.198;2023-10-09T02:24:43;101406.31;;;16.50;94.40
9249;BME280;4660;41.768;26.198;2023-10-09T02:27:19;101398.66;;;16.45;94.33
9249;BME280;4660;41.768;26.198;2023-10-09T02:30:04;101391.00;;;16.41;94.04
9249;BME280;4660;41.768;26.198;2023-10-09T02:32:34;101414.13;;;16.45;93.56
9249;BME280;4660;41.768;26.198;2023-10-09T02:35:01;101403.16;;;16.29;93.25
9249;BME280;4660;41.768;26.198;2023-10-09T02:37:35;101413.50;;;16.25;93.58
9249;BME280;4660;41.768;26.198;2023-10-09T02:40:04;101414.13;;;16.19;93.55
9249;BME280;4660;41.768;26.198;2023-10-09T02:42:34;101423.41;;;16.08;93.82
9249;BME280;4660;41.768;26.198;2023-10-09T02:45:00;101421.19;;;16.04;94.09
9249;BME280;4660;41.768;26.198;2023-10-09T02:47:26;101420.16;;;16.05;94.03
9249;BME280;4660;41.768;26.198;2023-10-09T02:50:03;101429.78;;;15.99;93.75
9249;BME280;4660;41.768;26.198;2023-10-09T02:52:45;101438.66;;;16.01;93.29
9249;BME280;4660;41.768;26.198;2023-10-09T02:55:13;101444.06;;;16.01;93.54
9249;BME280;4660;41.768;26.198;2023-10-09T02:57:49;101448.09;;;15.97;93.80
9249;BME280;4660;41.768;26.198;2023-10-09T03:00:17;101462.34;;;15.99;93.91
9249;BME280;4660;41.768;26.198;2023-10-09T03:02:54;101465.22;;;16.15;92.52
9249;BME280;4660;41.768;26.198;2023-10-09T03:05:19;101479.31;;;16.45;90.58
9249;BME280;4660;41.768;26.198;2023-10-09T03:07:46;101463.00;;;16.45;88.65
9249;BME280;4660;41.768;26.198;2023-10-09T03:10:11;101490.03;;;16.55;88.38
9249;BME280;4660;41.768;26.198;2023-10-09T03:12:37;101497.72;;;16.59;88.03
9249;BME280;4660;41.768;26.198;2023-10-09T03:15:05;101502.94;;;16.78;86.29
9249;BME280;4660;41.768;26.198;2023-10-09T03:17:33;101496.44;;;16.71;85.04
9249;BME280;4660;41.768;26.198;2023-10-09T03:20:03;101514.03;;;16.59;85.15
9249;BME280;4660;41.768;26.198;2023-10-09T03:22:34;101514.47;;;16.72;84.82
9249;BME280;4660;41.768;26.198;2023-10-09T03:25:00;101530.78;;;16.72;85.20
9249;BME280;4660;41.768;26.198;2023-10-09T03:27:26;101529.69;;;16.99;83.10
9249;BME280;4660;41.768;26.198;2023-10-09T03:29:51;101524.13;;;17.01;81.45
9249;BME280;4660;41.768;26.198;2023-10-09T03:32:19;101533.19;;;17.18;80.60
9249;BME280;4660;41.768;26.198;2023-10-09T03:34:44;101528.31;;;17.29;79.71
9249;BME280;4660;41.768;26.198;2023-10-09T03:37:10;101541.38;;;17.34;79.09
9249;BME280;4660;41.768;26.198;2023-10-09T03:39:47;101560.13;;;17.37;78.32
9249;BME280;4660;41.768;26.198;2023-10-09T03:42:13;101553.44;;;17.23;78.63
9249;BME280;4660;41.768;26.198;2023-10-09T03:44:49;101552.03;;;17.11;78.96
9249;BME280;4660;41.768;26.198;2023-10-09T03:47:21;101574.41;;;17.05;79.47
9249;BME280;4660;41.768;26.198;2023-10-09T03:49:50;101568.72;;;17.24;78.64
9249;BME280;4660;41.768;26.198;2023-10-09T03:52:19;101562.22;;;17.09;78.62
9249;BME280;4660;41.768;26.198;2023-10-09T03:54:45;101572.28;;;17.17;78.72
9249;BME280;4660;41.768;26.198;2023-10-09T03:57:13;101577.91;;;17.23;78.28
9249;BME280;4660;41.768;26.198;2023-10-09T03:59:45;101580.41;;;17.09;78.97
9249;BME280;4660;41.768;26.198;2023-10-09T04:02:13;101577.81;;;17.07;79.67
9249;BME280;4660;41.768;26.198;2023-10-09T04:04:38;101578.94;;;16.88;80.00
9249;BME280;4660;41.768;26.198;2023-10-09T04:07:04;101592.34;;;16.90;80.60
9249;BME280;4660;41.768;26.198;2023-10-09T04:09:32;101595.16;;;17.06;79.74
9249;BME280;4660;41.768;26.198;2023-10-09T04:12:04;101583.25;;;17.07;79.40
9249;BME280;4660;41.768;26.198;2023-10-09T04:14:39;101610.31;;;17.09;79.36
9249;BME280;4660;41.768;26.198;2023-10-09T04:17:23;101610.56;;;16.71;81.38
9249;BME280;4660;41.768;26.198;2023-10-09T04:19:58;101611.19;;;16.65;82.17
9249;BME280;4660;41.768;26.198;2023-10-09T04:22:42;101621.97;;;16.57;83.05
9249;BME280;4660;41.768;26.198;2023-10-09T04:25:22;101616.50;;;16.49;83.42
9249;BME280;4660;41.768;26.198;2023-10-09T04:27:58;101634.81;;;16.47;83.99
9249;BME280;4660;41.768;26.198;2023-10-09T04:30:43;101629.72;;;16.44;84.80
9249;BME280;4660;41.768;26.198;2023-10-09T04:33:09;101620.19;;;16.04;87.38
9249;BME280;4660;41.768;26.198;2023-10-09T04:36:04;101628.09;;;15.98;88.74
9249;BME280;4660;41.768;26.198;2023-10-09T04:38:51;101646.31;;;16.05;88.58
9249;BME280;4660;41.768;26.198;2023-10-09T04:41:32;101642.59;;;16.06;88.76
9249;BME280;4660;41.768;26.198;2023-10-09T04:43:59;101632.13;;;16.11;88.31
9249;BME280;4660;41.768;26.198;2023-10-09T04:46:46;101641.72;;;16.06;88.50
9249;BME280;4660;41.768;26.198;2023-10-09T04:49:33;101650.97;;;15.95;88.78
9249;BME280;4660;41.768;26.198;2023-10-09T04:52:19;101653.97;;;15.74;88.78
9249;BME280;4660;41.768;26.198;2023-10-09T04:55:05;101661.69;;;15.69;89.42
9249;BME280;4660;41.768;26.198;2023-10-09T05:02:53;101666.63;;;15.46;88.69
9249;BME280;4660;41.768;26.198;2023-10-09T05:05:24;101676.97;;;15.33;87.76
9249;BME280;4660;41.768;26.198;2023-10-09T05:07:58;101671.53;;;15.33;87.14
9249;BME280;4660;41.768;26.198;2023-10-09T05:10:42;101672.75;;;15.48;86.42
9249;BME280;4660;41.768;26.198;2023-10-09T05:13:33;101659.34;;;15.47;83.79
9249;BME280;4660;41.768;26.198;2023-10-09T05:16:18;101665.28;;;15.32;83.03
9249;BME280;4660;41.768;26.198;2023-10-09T05:18:48;101672.97;;;15.37;82.60
9249;BME280;4660;41.768;26.198;2023-10-09T05:21:37;101693.31;;;15.51;81.60
9249;BME280;4660;41.768;26.198;2023-10-09T05:24:07;101696.41;;;15.56;80.05
9249;BME280;4660;41.768;26.198;2023-10-09T05:26:46;101693.41;;;15.68;79.89
9249;BME280;4660;41.768;26.198;2023-10-09T05:29:21;101694.59;;;15.84;78.48
9249;BME280;4660;41.768;26.198;2023-10-09T05:32:05;101690.88;;;15.85;77.45
9249;BME280;4660;41.768;26.198;2023-10-09T05:34:41;101702.47;;;15.77;77.51
9249;BME280;4660;41.768;26.198;2023-10-09T05:37:32;101717.91;;;15.77;77.60
9249;BME280;4660;41.768;26.198;2023-10-09T05:40:00;101714.00;;;15.89;77.23
9249;BME280;4660;41.768;26.198;2023-10-09T05:42:30;101716.19;;;16.03;76.80
9249;BME280;4660;41.768;26.198;2023-10-09T05:45:09;101715.97;;;16.14;75.60
9249;BME280;4660;41.768;26.198;2023-10-09T05:47:34;101715.34;;;16.20;75.81
9249;BME280;4660;41.768;26.198;2023-10-09T05:50:00;101726.00;;;16.49;74.30
9249;BME280;4660;41.768;26.198;2023-10-09T05:52:34;101740.44;;;16.32;74.41
9249;BME280;4660;41.768;26.198;2023-10-09T05:55:03;101737.47;;;16.26;74.95
9249;BME280;4660;41.768;26.198;2023-10-09T05:57:53;101729.66;;;16.22;74.96
9249;BME280;4660;41.768;26.198;2023-10-09T06:00:25;101735.38;;;16.19;75.42
9249;BME280;4660;41.768;26.198;2023-10-09T06:03:10;101738.19;;;16.28;75.80
9249;BME280;4660;41.768;26.198;2023-10-09T06:05:42;101750.69;;;16.38;75.15
9249;BME280;4660;41.768;26.198;2023-10-09T06:08:18;101753.28;;;16.58;74.38
9249;BME280;4660;41.768;26.198;2023-10-09T06:10:51;101747.81;;;16.40;74.92
9249;BME280;4660;41.768;26.198;2023-10-09T06:13:31;101744.94;;;16.41;75.44
9249;BME280;4660;41.768;26.198;2023-10-09T06:16:06;101743.88;;;16.52;77.64
9249;BME280;4660;41.768;26.198;2023-10-09T06:18:46;101754.81;;;16.60;78.60
9249;BME280;4660;41.768;26.198;2023-10-09T06:21:20;101747.28;;;16.54;79.19
9249;BME280;4660;41.768;26.198;2023-10-09T06:24:05;101752.56;;;16.56;79.13
9249;BME280;4660;41.768;26.198;2023-10-09T06:27:14;101765.94;;;16.85;76.98
9249;BME280;4660;41.768;26.198;2023-10-09T06:30:33;101774.31;;;16.91;74.92
9249;BME280;4660;41.768;26.198;2023-10-09T06:37:03;101787.13;;;16.99;70.71
9249;BME280;4660;41.768;26.198;2023-10-09T06:39:41;101792.63;;;17.07;70.32
9249;BME280;4660;41.768;26.198;2023-10-09T06:42:16;101803.19;;;16.92;72.58
9249;BME280;4660;41.768;26.198;2023-10-09T06:45:11;101815.03;;;17.01;72.03
9249;BME280;4660;41.768;26.198;2023-10-09T06:47:40;101807.56;;;17.03;72.31
9249;BME280;4660;41.768;26.198;2023-10-09T06:50:19;101827.66;;;16.92;73.92
9249;BME280;4660;41.768;26.198;2023-10-09T06:52:48;101830.56;;;16.63;75.73
9249;BME280;4660;41.768;26.198;2023-10-09T06:55:24;101842.56;;;16.70;74.81
9249;BME280;4660;41.768;26.198;2023-10-09T06:58:23;101834.75;;;16.40;75.57
9249;BME280;4660;41.768;26.198;2023-10-09T07:00:50;101830.81;;;16.24;76.86
9249;BME280;4660;41.768;26.198;2023-10-09T07:03:34;101838.22;;;16.77;74.68
9249;BME280;4660;41.768;26.198;2023-10-09T07:06:06;101830.31;;;17.02;72.43
9249;BME280;4660;41.768;26.198;2023-10-09T07:08:53;101847.97;;;17.16;71.94
9249;BME280;4660;41.768;26.198;2023-10-09T07:11:34;101844.56;;;16.68;74.81
9249;BME280;4660;41.768;26.198;2023-10-09T07:16:57;101841.56;;;16.71;75.80
9249;BME280;4660;41.768;26.198;2023-10-09T07:19:31;101852.53;;;16.97;75.11
9249;BME280;4660;41.768;26.198;2023-10-09T07:22:00;101840.59;;;17.08;75.24
9249;BME280;4660;41.768;26.198;2023-10-09T07:24:30;101840.88;;;17.49;73.82
9249;BME280;4660;41.768;26.198;2023-10-09T07:27:21;101839.41;;;17.72;71.40
9249;BME280;4660;41.768;26.198;2023-10-09T07:30:07;101848.50;;;17.89;69.34
9249;BME280;4660;41.768;26.198;2023-10-09T07:32:54;101847.63;;;17.80;67.33
9249;BME280;4660;41.768;26.198;2023-10-09T07:35:23;101842.47;;;17.77;67.77
9249;BME280;4660;41.768;26.198;2023-10-09T07:38:07;101844.56;;;17.83;66.66
9249;BME280;4660;41.768;26.198;2023-10-09T07:40:42;101843.44;;;17.94;66.43
9249;BME280;4660;41.768;26.198;2023-10-09T07:43:31;101862.38;;;18.04;66.07
9249;BME280;4660;41.768;26.198;2023-10-09T07:46:11;101864.25;;;17.77;66.88
9249;BME280;4660;41.768;26.198;2023-10-09T07:49:00;101853.28;;;17.87;67.13
9249;BME280;4660;41.768;26.198;2023-10-09T07:51:35;101843.38;;;18.20;65.95
9249;BME280;4660;41.768;26.198;2023-10-09T07:54:02;101855.44;;;18.09;64.90
9249;BME280;4660;41.768;26.198;2023-10-09T07:56:39;101859.03;;;17.84;66.06
9249;BME280;4660;41.768;26.198;2023-10-09T07:59:16;101846.16;;;17.94;65.98
9249;BME280;4660;41.768;26.198;2023-10-09T08:01:49;101839.53;;;17.97;66.75
9249;BME280;4660;41.768;26.198;2023-10-09T08:04:23;101845.59;;;18.17;66.48
9249;BME280;4660;41.768;26.198;2023-10-09T08:07:10;101856.47;;;18.51;64.87
9249;BME280;4660;41.768;26.198;2023-10-09T08:09:45;101842.34;;;18.63;63.61
9249;BME280;4660;41.768;26.198;2023-10-09T08:12:17;101854.38;;;18.87;62.87
9249;BME280;4660;41.768;26.198;2023-10-09T08:15:02;101844.31;;;18.87;62.54
9249;BME280;4660;41.768;26.198;2023-10-09T08:17:53;101826.59;;;19.16;63.02
9249;BME280;4660;41.768;26.198;2023-10-09T08:20:30;101852.34;;;19.46;61.58
9249;BME280;4660;41.768;26.198;2023-10-09T08:23:15;101856.25;;;19.19;60.25
9249;BME280;4660;41.768;26.198;2023-10-09T08:26:03;101855.75;;;19.15;62.40
9249;BME280;4660;41.768;26.198;2023-10-09T08:28:43;101858.31;;;19.41;62.04
9249;BME280;4660;41.768;26.198;2023-10-09T08:31:14;101860.84;;;19.35;62.11
9249;BME280;4660;41.768;26.198;2023-10-09T08:34:15;101844.97;;;19.55;61.21
9249;BME280;4660;41.768;26.198;2023-10-09T08:36:51;101855.22;;;19.69;60.12
9249;BME280;4660;41.768;26.198;2023-10-09T08:39:22;101855.91;;;19.46;59.96
9249;BME280;4660;41.768;26.198;2023-10-09T08:41:51;101847.06;;;19.36;60.47
9249;BME280;4660;41.768;26.198;2023-10-09T08:44:19;101851.84;;;19.59;58.75
9249;BME280;4660;41.768;26.198;2023-10-09T08:46:49;101850.13;;;19.25;59.45
9249;BME280;4660;41.768;26.198;2023-10-09T08:49:16;101856.59;;;19.16;59.94
9249;BME280;4660;41.768;26.198;2023-10-09T08:51:42;101854.22;;;19.29;60.04
9249;BME280;4660;41.768;26.198;2023-10-09T08:54:08;101845.34;;;19.35;59.07
9249;BME280;4660;41.768;26.198;2023-10-09T08:56:37;101851.31;;;19.22;59.46
9249;BME280;4660;41.768;26.198;2023-10-09T08:59:05;101832.41;;;19.37;59.06
9249;BME280;4660;41.768;26.198;2023-10-09T09:01:31;101852.16;;;19.07;59.96
9249;BME280;4660;41.768;26.198;2023-10-09T09:03:59;101840.91;;;19.02;60.23
9249;BME280;4660;41.768;26.198;2023-10-09T09:06:36;101838.19;;;19.34;60.26
9249;BME280;4660;41.768;26.198;2023-10-09T09:09:11;101839.72;;;19.61;60.03
9249;BME280;4660;41.768;26.198;2023-10-09T09:11:43;101832.19;;;19.55;58.82
9249;BME280;4660;41.768;26.198;2023-10-09T09:14:14;101828.81;;;19.37;61.31
9249;BME280;4660;41.768;26.198;2023-10-09T09:16:45;101828.63;;;19.63;59.07
9249;BME280;4660;41.768;26.198;2023-10-09T09:19:14;101825.22;;;19.12;59.48
9249;BME280;4660;41.768;26.198;2023-10-09T09:21:48;101813.09;;;19.06;61.20
9249;BME280;4660;41.768;26.198;2023-10-09T09:24:16;101819.59;;;19.13;63.60
9249;BME280;4660;41.768;26.198;2023-10-09T09:27:03;101822.50;;;19.12;64.52
9249;BME280;4660;41.768;26.198;2023-10-09T09:29:39;101807.47;;;19.00;64.17
9249;BME280;4660;41.768;26.198;2023-10-09T09:32:10;101813.09;;;19.06;64.21
9249;BME280;4660;41.768;26.198;2023-10-09T09:34:52;101805.44;;;19.10;63.34
9249;BME280;4660;41.768;26.198;2023-10-09T09:37:33;101802.53;;;19.19;64.33
9249;BME280;4660;41.768;26.198;2023-10-09T09:40:08;101809.00;;;19.51;63.12
9249;BME280;4660;41.768;26.198;2023-10-09T09:42:57;101809.13;;;19.82;61.83
9249;BME280;4660;41.768;26.198;2023-10-09T09:45:32;101797.31;;;19.90;61.52
9249;BME280;4660;41.768;26.198;2023-10-09T09:48:02;101796.81;;;19.94;61.03
9249;BME280;4660;41.768;26.198;2023-10-09T09:50:32;101788.91;;;20.08;59.96
9249;BME280;4660;41.768;26.198;2023-10-09T09:52:59;101777.31;;;20.28;58.36
9249;BME280;4660;41.768;26.198;2023-10-09T09:55:26;101782.31;;;19.86;59.63
9249;BME280;4660;41.768;26.198;2023-10-09T09:57:58;101778.72;;;19.93;59.80
9249;BME280;4660;41.768;26.198;2023-10-09T10:00:29;101783.81;;;19.96;58.40
9249;BME280;4660;41.768;26.198;2023-10-09T10:03:29;101781.56;;;20.08;58.85
9249;BME280;4660;41.768;26.198;2023-10-09T10:05:59;101761.22;;;20.11;58.36
9249;BME280;4660;41.768;26.198;2023-10-09T10:08:30;101752.78;;;20.20;57.68
9249;BME280;4660;41.768;26.198;2023-10-09T10:10:59;101767.88;;;20.39;57.94
9249;BME280;4660;41.768;26.198;2023-10-09T10:16:12;101754.66;;;20.20;58.44
9249;BME280;4660;41.768;26.198;2023-10-09T10:18:54;101743.16;;;20.01;59.22
9249;BME280;4660;41.768;26.198;2023-10-09T10:21:28;101753.00;;;20.42;58.60
9249;BME280;4660;41.768;26.198;2023-10-09T10:23:56;101752.38;;;20.63;57.37
9249;BME280;4660;41.768;26.198;2023-10-09T10:26:27;101737.78;;;20.47;57.58
9249;BME280;4660;41.768;26.198;2023-10-09T10:29:16;101734.28;;;20.30;59.76
9249;BME280;4660;41.768;26.198;2023-10-09T10:31:53;101732.06;;;20.57;59.00
9249;BME280;4660;41.768;26.198;2023-10-09T10:34:25;101726.78;;;20.55;60.09
9249;BME280;4660;41.768;26.198;2023-10-09T10:36:51;101718.41;;;20.80;59.19
9249;BME280;4660;41.768;26.198;2023-10-09T10:39:24;101709.50;;;20.78;58.26
9249;BME280;4660;41.768;26.198;2023-10-09T10:42:08;101704.31;;;21.06;57.51
9249;BME280;4660;41.768;26.198;2023-10-09T10:45:00;101712.53;;;21.21;56.71
9249;BME280;4660;41.768;26.198;2023-10-09T10:47:29;101704.13;;;20.70;58.09
9249;BME280;4660;41.768;26.198;2023-10-09T10:50:01;101708.84;;;20.76;58.89
9249;BME280;4660;41.768;26.198;2023-10-09T10:52:47;101697.09;;;20.90;58.87
9249;BME280;4660;41.768;26.198;2023-10-09T10:55:23;101697.03;;;20.98;58.00
9249;BME280;4660;41.768;26.198;2023-10-09T10:57:54;101689.56;;;21.07;57.91
9249;BME280;4660;41.768;26.198;2023-10-09T11:00:31;101678.75;;;21.13;58.04
9249;BME280;4660;41.768;26.198;2023-10-09T11:03:21;101677.53;;;21.16;58.13
9249;BME280;4660;41.768;26.198;2023-10-09T11:06:03;101674.16;;;21.29;58.29
9249;BME280;4660;41.768;26.198;2023-10-09T11:08:47;101661.78;;;21.33;58.91
9249;BME280;4660;41.768;26.198;2023-10-09T11:11:20;101649.13;;;21.61;56.53
9249;BME280;4660;41.768;26.198;2023-10-09T11:13:45;101641.22;;;21.52;56.56
9249;BME280;4660;41.768;26.198;2023-10-09T11:16:25;101644.03;;;21.58;56.36
9249;BME280;4660;41.768;26.198;2023-10-09T11:19:14;101636.28;;;21.62;56.60
9249;BME280;4660;41.768;26.198;2023-10-09T11:21:53;101641.63;;;21.70;55.88
9249;BME280;4660;41.768;26.198;2023-10-09T11:24:32;101639.34;;;21.88;55.01
9249;BME280;4660;41.768;26.198;2023-10-09T11:27:03;101624.09;;;21.64;55.18
9249;BME280;4660;41.768;26.198;2023-10-09T11:29:33;101628.25;;;21.60;55.42
9249;BME280;4660;41.768;26.198;2023-10-09T11:32:09;101624.34;;;21.69;55.62
9249;BME280;4660;41.768;26.198;2023-10-09T11:34:36;101632.53;;;21.84;55.44
9249;BME280;4660;41.768;26.198;2023-10-09T11:37:14;101629.88;;;21.91;55.69
9249;BME280;4660;41.768;26.198;2023-10-09T11:39:55;101618.53;;;22.09;55.31
9249;BME280;4660;41.768;26.198;2023-10-09T11:42:27;101615.25;;;22.20;55.15
9249;BME280;4660;41.768;26.198;2023-10-09T11:45:23;101616.16;;;22.27;54.24
9249;BME280;4660;41.768;26.198;2023-10-09T11:47:51;101598.88;;;22.27;53.82
9249;BME280;4660;41.768;26.198;2023-10-09T11:50:47;101609.53;;;22.43;53.54
9249;BME280;4660;41.768;26.198;2023-10-09T11:53:43;101601.94;;;22.38;52.78
9249;BME280;4660;41.768;26.198;2023-10-09T11:56:10;101592.84;;;22.38;53.17
9249;BME280;4660;41.768;26.198;2023-10-09T11:58:40;101587.22;;;22.46;53.88
9249;BME280;4660;41.768;26.198;2023-10-09T12:01:12;101580.84;;;22.39;54.15
9249;BME280;4660;41.768;26.198;2023-10-09T12:03:51;101588.97;;;22.53;53.20
9249;BME280;4660;41.768;26.198;2023-10-09T12:06:20;101587.50;;;22.51;53.17
9249;BME280;4660;41.768;26.198;2023-10-09T12:08:49;101578.38;;;22.44;53.58
9249;BME280;4660;41.768;26.198;2023-10-09T12:11:16;101567.50;;;22.36;53.40
9249;BME280;4660;41.768;26.198;2023-10-09T12:13:48;101573.19;;;22.34;54.25
9249;BME280;4660;41.768;26.198;2023-10-09T12:16:14;101556.19;;;22.17;54.38
9249;BME280;4660;41.768;26.198;2023-10-09T12:18:43;101555.59;;;22.01;55.84
9249;BME280;4660;41.768;26.198;2023-10-09T12:21:18;101543.38;;;21.82;57.15
9249;BME280;4660;41.768;26.198;2023-10-09T12:23:44;101542.44;;;22.11;56.70
9249;BME280;4660;41.768;26.198;2023-10-09T12:26:13;101543.81;;;22.28;55.51
9249;BME280;4660;41.768;26.198;2023-10-09T12:28:42;101539.56;;;22.47;54.31
9249;BME280;4660;41.768;26.198;2023-10-09T12:31:14;101544.00;;;22.48;54.31
9249;BME280;4660;41.768;26.198;2023-10-09T12:33:40;101539.31;;;22.42;54.18
9249;BME280;4660;41.768;26.198;2023-10-09T12:36:11;101527.94;;;22.45;53.92
9249;BME280;4660;41.768;26.198;2023-10-09T12:38:43;101526.09;;;22.52;53.72
9249;BME280;4660;41.768;26.198;2023-10-09T12:41:11;101513.88;;;22.27;54.21
9249;BME280;4660;41.768;26.198;2023-10-09T12:43:56;101519.34;;;22.27;53.99
9249;BME280;4660;41.768;26.198;2023-10-09T12:46:25;101512.94;;;22.41;54.54
9249;BME280;4660;41.768;26.198;2023-10-09T12:48:52;101517.19;;;22.43;54.11
9249;BME280;4660;41.768;26.198;2023-10-09T12:51:20;101513.72;;;22.35;54.00
9249;BME280;4660;41.768;26.198;2023-10-09T12:53:46;101512.94;;;22.41;55.15
9249;BME280;4660;41.768;26.198;2023-10-09T12:56:25;101509.94;;;22.36;56.10
9249;BME280;4660;41.768;26.198;2023-10-09T12:59:04;101496.38;;;22.28;55.89
9249;BME280;4660;41.768;26.198;2023-10-09T13:01:30;101501.66;;;22.57;54.60
9249;BME280;4660;41.768;26.198;2023-10-09T13:04:12;101487.84;;;22.78;53.36
9249;BME280;4660;41.768;26.198;2023-10-09T13:06:39;101470.91;;;22.68;52.75
9249;BME280;4660;41.768;26.198;2023-10-09T13:09:15;101474.78;;;22.80;52.04
9249;BME280;4660;41.768;26.198;2023-10-09T13:11:41;101489.94;;;22.76;52.16
9249;BME280;4660;41.768;26.198;2023-10-09T13:14:08;101476.81;;;22.65;52.77
9249;BME280;4660;41.768;26.198;2023-10-09T13:16:45;101476.38;;;22.62;53.95
9249;BME280;4660;41.768;26.198;2023-10-09T13:19:11;101469.63;;;22.64;53.90
9249;BME280;4660;41.768;26.198;2023-10-09T13:21:37;101473.09;;;22.79;53.68
9249;BME280;4660;41.768;26.198;2023-10-09T13:24:06;101481.25;;;23.01;52.47
9249;BME280;4660;41.768;26.198;2023-10-09T13:26:39;101476.38;;;22.96;51.31
9249;BME280;4660;41.768;26.198;2023-10-09T13:29:06;101459.66;;;22.91;52.06
9249;BME280;4660;41.768;26.198;2023-10-09T13:31:35;101450.09;;;22.80;51.57
9249;BME280;4660;41.768;26.198;2023-10-09T13:34:06;101457.84;;;22.70;49.43
9249;BME280;4660;41.768;26.198;2023-10-09T13:36:35;101439.81;;;22.89;47.57
9249;BME280;4660;41.768;26.198;2023-10-09T13:39:08;101455.00;;;22.92;47.95
9249;BME280;4660;41.768;26.198;2023-10-09T13:41:58;101459.94;;;23.03;45.94
9249;BME280;4660;41.768;26.198;2023-10-09T13:44:28;101450.00;;;23.02;45.54
9249;BME280;4660;41.768;26.198;2023-10-09T13:46:59;101456.56;;;22.66;46.88
9249;BME280;4660;41.768;26.198;2023-10-09T13:49:25;101443.66;;;22.60;48.25
9249;BME280;4660;41.768;26.198;2023-10-09T13:52:00;101444.97;;;22.71;48.01
9249;BME280;4660;41.768;26.198;2023-10-09T13:54:27;101405.00;;;22.55;49.58
9249;BME280;4660;41.768;26.198;2023-10-09T13:56:59;101438.97;;;22.89;50.04